createdAt,value
2022-11-12T00:01:39.328Z,9.05
2022-11-12T00:04:25.068Z,9.05
2022-11-12T00:07:11.254Z,9.04
2022-11-12T00:09:57.061Z,9.11
2022-11-12T00:12:43.242Z,9.13
2022-11-12T00:15:29.317Z,8.82
2022-11-12T00:18:52.074Z,8.76
2022-11-12T00:21:38.130Z,8.70
2022-11-12T00:24:23.884Z,8.68
2022-11-12T00:27:09.777Z,8.80
2022-11-12T00:29:55.667Z,9.01
2022-11-12T00:32:41.237Z,8.76
2022-11-12T00:35:27.120Z,8.73
2022-11-12T00:38:12.971Z,8.69
2022-11-12T00:41:01.961Z,8.59
2022-11-12T00:43:48.279Z,8.56
2022-11-12T00:46:34.419Z,8.49
2022-11-12T00:49:20.146Z,7.39
2022-11-12T00:52:06.095Z,7.31
2022-11-12T00:54:51.923Z,7.60
2022-11-12T00:57:37.851Z,7.89
2022-11-12T01:00:24.116Z,8.06
2022-11-12T01:03:10.031Z,8.25
2022-11-12T01:06:02.061Z,8.30
2022-11-12T01:08:49.880Z,8.35
2022-11-12T01:11:36.952Z,8.28
2022-11-12T01:14:23.099Z,8.46
2022-11-12T01:17:09.002Z,8.07
2022-11-12T01:19:54.785Z,7.87
2022-11-12T01:22:41.048Z,7.79
2022-11-12T01:25:26.913Z,7.79
2022-11-12T01:28:12.798Z,7.86
2022-11-12T01:30:58.678Z,8.01
2022-11-12T01:33:47.741Z,8.01
2022-11-12T01:36:37.384Z,8.09
2022-11-12T01:39:23.642Z,8.06
2022-11-12T01:42:10.296Z,8.17
2022-11-12T01:44:56.319Z,8.31
2022-11-12T01:47:42.761Z,8.39
2022-11-12T01:50:34.105Z,7.69
2022-11-12T01:53:24.939Z,7.71
2022-11-12T01:56:11.754Z,7.66
2022-11-12T01:59:05.198Z,7.77
2022-11-12T02:01:51.242Z,7.82
2022-11-12T02:04:40.243Z,7.99
2022-11-12T02:07:26.886Z,7.92
2022-11-12T02:10:14.665Z,7.95
2022-11-12T02:13:19.247Z,8.04
2022-11-12T02:16:07.377Z,7.96
2022-11-12T02:18:53.374Z,8.01
2022-11-12T02:21:39.729Z,8.17
2022-11-12T02:24:25.639Z,8.16
2022-11-12T02:27:11.960Z,8.32
2022-11-12T02:29:57.965Z,8.42
2022-11-12T02:32:44.003Z,8.61
2022-11-12T02:35:30.439Z,8.60
2022-11-12T02:38:16.389Z,8.42
2022-11-12T02:41:02.484Z,8.37
2022-11-12T02:43:48.264Z,8.16
2022-11-12T02:46:34.085Z,8.42
2022-11-12T02:49:19.914Z,8.29
2022-11-12T02:52:05.797Z,8.22
2022-11-12T02:54:51.798Z,8.13
2022-11-12T02:57:38.804Z,8.10
2022-11-12T03:00:25.222Z,8.41
2022-11-12T03:03:11.454Z,8.31
2022-11-12T03:06:01.825Z,8.45
2022-11-12T03:08:47.497Z,8.38
2022-11-12T03:11:33.034Z,8.37
2022-11-12T03:14:19.031Z,8.34
2022-11-12T03:17:05.345Z,8.36
2022-11-12T03:19:51.469Z,8.52
2022-11-12T03:22:38.481Z,8.19
2022-11-12T03:25:26.341Z,8.10
2022-11-12T03:28:14.111Z,7.85
2022-11-12T03:31:01.063Z,8.21
2022-11-12T03:33:46.984Z,8.30
2022-11-12T03:36:32.857Z,8.40
2022-11-12T03:39:18.846Z,8.01
2022-11-12T03:42:05.727Z,8.14
2022-11-12T03:44:51.715Z,8.26
2022-11-12T03:47:40.596Z,8.60
2022-11-12T03:50:29.219Z,8.03
2022-11-12T03:53:15.122Z,8.16
2022-11-12T03:56:01.068Z,8.30
2022-11-12T03:58:46.770Z,8.44
2022-11-12T04:01:32.844Z,8.50
2022-11-12T04:04:18.960Z,8.44
2022-11-12T04:07:36.686Z,8.56
2022-11-12T04:10:22.827Z,8.23
2022-11-12T04:13:27.130Z,8.24
2022-11-12T04:16:40.892Z,8.30
2022-11-12T04:19:45.043Z,8.35
2022-11-12T04:22:31.196Z,8.33
2022-11-12T04:25:35.507Z,8.48
2022-11-12T04:28:21.344Z,8.12
2022-11-12T04:31:32.268Z,8.35
2022-11-12T04:34:29.922Z,8.18
2022-11-12T04:37:17.800Z,8.25
2022-11-12T04:40:28.200Z,8.10
2022-11-12T04:43:34.834Z,8.33
2022-11-12T04:46:20.932Z,8.15
2022-11-12T04:49:06.937Z,8.20
2022-11-12T04:52:07.651Z,8.00
2022-11-12T04:54:54.223Z,7.88
2022-11-12T04:57:40.369Z,7.96
2022-11-12T05:00:27.135Z,7.97
2022-11-12T05:03:12.913Z,7.89
2022-11-12T05:06:25.765Z,8.02
2022-11-12T05:09:11.688Z,7.96
2022-11-12T05:11:57.974Z,8.10
2022-11-12T05:14:44.407Z,7.94
2022-11-12T05:17:30.574Z,8.06
2022-11-12T05:20:17.068Z,8.00
2022-11-12T05:23:07.431Z,8.02
2022-11-12T05:25:53.571Z,8.14
2022-11-12T05:28:39.362Z,8.22
2022-11-12T05:31:25.250Z,8.23
2022-11-12T05:34:11.825Z,8.05
2022-11-12T05:36:58.591Z,8.14
2022-11-12T05:39:44.413Z,8.07
2022-11-12T05:42:30.121Z,7.96
2022-11-12T05:45:15.958Z,7.82
2022-11-12T05:48:02.119Z,7.87
2022-11-12T05:54:00.626Z,7.80
2022-11-12T05:56:46.665Z,7.84
2022-11-12T05:59:32.973Z,7.68
2022-11-12T06:02:19.082Z,7.72
2022-11-12T06:05:05.510Z,7.61
2022-11-12T06:07:51.538Z,7.70
2022-11-12T06:10:37.281Z,7.66
2022-11-12T06:13:25.540Z,7.52
2022-11-12T06:16:11.239Z,7.51
2022-11-12T06:18:57.149Z,7.74
2022-11-12T06:21:43.383Z,7.79
2022-11-12T06:24:35.054Z,7.81
2022-11-12T06:27:21.382Z,7.98
2022-11-12T06:30:09.919Z,8.27
2022-11-12T06:32:56.092Z,8.43
2022-11-12T06:35:43.251Z,8.50
2022-11-12T06:38:34.931Z,8.47
2022-11-12T06:41:21.055Z,8.42
2022-11-12T06:44:06.747Z,8.56
2022-11-12T06:46:52.615Z,8.55
2022-11-12T06:49:38.468Z,8.66
2022-11-12T06:52:24.897Z,8.64
2022-11-12T06:55:10.636Z,8.86
2022-11-12T06:57:56.848Z,8.89
2022-11-12T07:00:42.829Z,8.95
2022-11-12T07:03:28.669Z,8.88
2022-11-12T07:06:19.326Z,8.73
2022-11-12T07:09:05.613Z,9.22
2022-11-12T07:11:51.491Z,9.17
2022-11-12T07:14:37.302Z,9.36
2022-11-12T07:17:39.502Z,9.14
2022-11-12T07:20:30.682Z,8.95
2022-11-12T07:23:17.235Z,9.04
2022-11-12T07:26:06.149Z,9.25
2022-11-12T07:28:53.026Z,9.62
2022-11-12T07:31:39.028Z,9.49
2022-11-12T07:34:25.330Z,9.38
2022-11-12T07:37:11.266Z,8.68
2022-11-12T07:39:58.115Z,9.02
2022-11-12T07:42:49.073Z,9.52
2022-11-12T07:45:34.960Z,9.34
2022-11-12T07:48:24.004Z,9.90
2022-11-12T07:51:19.306Z,10.26
2022-11-12T07:54:05.423Z,9.71
2022-11-12T07:56:51.408Z,9.64
2022-11-12T07:59:40.588Z,9.52
2022-11-12T08:02:29.488Z,9.72
2022-11-12T08:05:20.999Z,9.48
2022-11-12T08:08:07.366Z,9.21
2022-11-12T08:10:59.908Z,10.11
2022-11-12T08:13:46.029Z,10.61
2022-11-12T08:16:33.022Z,10.69
2022-11-12T08:19:18.779Z,10.92
2022-11-12T08:22:05.122Z,11.29
2022-11-12T08:24:50.976Z,11.57
2022-11-12T08:27:37.253Z,11.24
2022-11-12T08:30:22.949Z,11.18
2022-11-12T08:33:08.747Z,11.24
2022-11-12T08:35:55.150Z,10.88
2022-11-12T08:38:41.459Z,10.92
2022-11-12T08:41:27.293Z,10.95
2022-11-12T08:44:13.108Z,11.53
2022-11-12T08:46:59.538Z,11.67
2022-11-12T08:49:48.144Z,11.90
2022-11-12T08:52:34.342Z,12.16
2022-11-12T08:55:20.133Z,11.52
2022-11-12T08:58:06.913Z,11.33
2022-11-12T09:00:53.328Z,12.03
2022-11-12T09:03:39.383Z,11.60
2022-11-12T09:06:25.143Z,11.96
2022-11-12T09:09:10.900Z,11.80
2022-11-12T09:11:59.526Z,12.16
2022-11-12T09:14:46.090Z,11.91
2022-11-12T09:17:35.338Z,12.00
2022-11-12T09:20:20.944Z,11.11
2022-11-12T09:23:09.841Z,11.92
2022-11-12T09:25:57.257Z,12.46
2022-11-12T09:28:49.499Z,12.60
2022-11-12T09:31:35.976Z,12.65
2022-11-12T09:34:22.774Z,13.01
2022-11-12T09:37:09.256Z,13.26
2022-11-12T09:39:55.005Z,13.62
2022-11-12T09:42:44.626Z,13.48
2022-11-12T09:45:32.991Z,13.44
2022-11-12T09:48:26.489Z,12.66
2022-11-12T09:51:25.773Z,12.53
2022-11-12T09:54:27.167Z,13.16
2022-11-12T09:57:13.264Z,13.75
2022-11-12T09:59:59.564Z,13.97
2022-11-12T10:03:00.674Z,13.95
2022-11-12T10:05:57.941Z,13.91
2022-11-12T10:08:53.132Z,13.90
2022-11-12T10:12:06.475Z,13.25
2022-11-12T10:15:52.802Z,13.22
2022-11-12T10:19:01.005Z,13.22
2022-11-12T10:22:02.966Z,13.90
2022-11-12T10:24:49.595Z,14.37
2022-11-12T10:27:40.313Z,14.26
2022-11-12T10:30:26.332Z,14.45
2022-11-12T10:33:15.214Z,13.98
2022-11-12T10:36:17.132Z,14.39
2022-11-12T10:39:04.844Z,13.75
2022-11-12T10:42:02.570Z,14.21
2022-11-12T10:44:49.014Z,14.58
2022-11-12T10:47:43.083Z,14.55
2022-11-12T10:50:30.473Z,14.80
2022-11-12T10:53:31.825Z,15.15
2022-11-12T10:56:30.071Z,14.88
2022-11-12T10:59:21.888Z,15.02
2022-11-12T11:02:17.577Z,14.31
2022-11-12T11:05:28.059Z,14.94
2022-11-12T11:08:14.249Z,15.14
2022-11-12T11:11:22.799Z,15.06
2022-11-12T11:14:23.753Z,14.90
2022-11-12T11:17:17.598Z,15.12
2022-11-12T11:20:24.693Z,15.32
2022-11-12T11:23:26.566Z,15.31
2022-11-12T11:26:28.077Z,15.36
2022-11-12T11:29:35.251Z,15.11
2022-11-12T11:33:04.186Z,14.99
2022-11-12T11:35:55.638Z,15.06
2022-11-12T11:39:13.562Z,15.01
2022-11-12T11:42:17.443Z,14.91
2022-11-12T11:45:21.235Z,14.90
2022-11-12T11:48:09.811Z,14.93
2022-11-12T11:51:29.046Z,14.79
2022-11-12T11:55:01.197Z,15.02
2022-11-12T11:58:37.472Z,14.67
2022-11-12T12:02:04.604Z,14.96
2022-11-12T12:04:55.546Z,15.21
2022-11-12T12:08:24.974Z,15.38
2022-11-12T12:11:24.187Z,15.32
2022-11-12T12:14:25.226Z,15.28
2022-11-12T12:17:19.948Z,14.75
2022-11-12T12:20:31.634Z,15.25
2022-11-12T12:23:33.643Z,15.15
2022-11-12T12:26:23.231Z,15.11
2022-11-12T12:29:43.343Z,14.49
2022-11-12T12:32:33.592Z,14.94
2022-11-12T12:35:19.793Z,14.29
2022-11-12T12:38:11.738Z,14.46
2022-11-12T12:41:12.724Z,14.48
2022-11-12T12:44:04.433Z,14.62
2022-11-12T12:46:57.813Z,14.23
2022-11-12T12:49:46.710Z,14.43
2022-11-12T12:53:05.064Z,14.74
2022-11-12T12:56:14.045Z,14.59
2022-11-12T12:59:03.861Z,14.43
2022-11-12T13:01:59.458Z,14.22
2022-11-12T13:04:55.248Z,14.32
2022-11-12T13:07:49.617Z,13.94
2022-11-12T13:10:41.525Z,14.09
2022-11-12T13:13:32.335Z,14.06
2022-11-12T13:16:51.265Z,14.26
2022-11-12T13:20:17.623Z,14.06
2022-11-12T13:23:05.562Z,14.31
2022-11-12T13:25:51.384Z,14.19
2022-11-12T13:29:22.067Z,14.68
2022-11-12T13:32:33.857Z,14.90
2022-11-12T13:35:24.387Z,14.57
2022-11-12T13:38:15.821Z,14.56
2022-11-12T13:41:19.657Z,15.03
2022-11-12T13:44:09.106Z,14.89
2022-11-12T13:46:56.160Z,14.89
2022-11-12T13:49:43.998Z,14.69
2022-11-12T13:52:30.140Z,14.92
2022-11-12T13:55:24.959Z,14.58
2022-11-12T13:58:30.182Z,14.48
2022-11-12T14:01:20.925Z,14.21
2022-11-12T14:04:10.788Z,14.36
2022-11-12T14:07:17.550Z,14.32
2022-11-12T14:10:34.727Z,14.40
2022-11-12T14:13:23.253Z,14.14
2022-11-12T14:16:18.180Z,14.07
2022-11-12T14:19:31.161Z,14.53
2022-11-12T14:22:19.223Z,14.25
2022-11-12T14:25:24.476Z,14.39
2022-11-12T14:28:29.507Z,14.37
2022-11-12T14:31:23.657Z,14.45
2022-11-12T14:34:30.436Z,14.53
2022-11-12T14:37:41.572Z,14.35
2022-11-12T14:40:31.887Z,13.92
2022-11-12T14:43:27.294Z,13.94
2022-11-12T14:46:43.981Z,14.04
2022-11-12T14:49:29.940Z,14.33
2022-11-12T14:52:19.285Z,14.20
2022-11-12T14:55:15.192Z,13.83
2022-11-12T14:58:01.771Z,13.70
2022-11-12T15:00:50.578Z,13.73
2022-11-12T15:03:36.666Z,13.88
2022-11-12T15:06:28.833Z,13.92
2022-11-12T15:09:37.481Z,13.71
2022-11-12T15:12:28.915Z,13.80
2022-11-12T15:15:23.534Z,13.94
2022-11-12T15:18:19.229Z,14.17
2022-11-12T15:21:28.476Z,13.61
2022-11-12T15:24:19.225Z,13.32
2022-11-12T15:27:39.101Z,13.45
2022-11-12T15:30:31.611Z,13.36
2022-11-12T15:33:23.576Z,13.36
2022-11-12T15:36:27.641Z,13.36
2022-11-12T15:39:14.368Z,13.21
2022-11-12T15:42:06.756Z,13.27
2022-11-12T15:44:59.449Z,13.28
2022-11-12T15:47:45.908Z,13.31
2022-11-12T15:50:31.888Z,13.39
2022-11-12T15:53:18.079Z,13.30
2022-11-12T15:56:06.550Z,13.33
2022-11-12T15:58:52.505Z,13.09
2022-11-12T16:01:38.572Z,12.99
2022-11-12T16:04:25.751Z,12.97
2022-11-12T16:07:12.125Z,12.82
2022-11-12T16:09:57.809Z,12.65
2022-11-12T16:12:44.532Z,12.77
2022-11-12T16:15:33.983Z,12.82
2022-11-12T16:18:20.139Z,12.93
2022-11-12T16:21:20.448Z,12.85
2022-11-12T16:24:07.331Z,12.65
2022-11-12T16:26:56.214Z,12.65
2022-11-12T16:29:42.156Z,12.65
2022-11-12T16:32:30.723Z,12.77
2022-11-12T16:35:19.021Z,12.67
2022-11-12T16:38:17.011Z,12.67
2022-11-12T16:41:35.392Z,12.58
2022-11-12T16:44:22.509Z,12.44
2022-11-12T16:47:11.204Z,12.27
2022-11-12T16:49:57.611Z,12.52
2022-11-12T16:52:44.137Z,12.59
2022-11-12T16:55:34.815Z,12.73
2022-11-12T16:58:24.660Z,12.81
2022-11-12T17:01:23.457Z,12.56
2022-11-12T17:04:09.801Z,12.51
2022-11-12T17:06:55.919Z,12.48
2022-11-12T17:09:42.620Z,12.35
2022-11-12T17:12:29.704Z,12.36
2022-11-12T17:15:16.922Z,12.41
2022-11-12T17:18:03.369Z,12.43
2022-11-12T17:20:51.371Z,12.40
2022-11-12T17:23:37.794Z,12.27
2022-11-12T17:26:24.246Z,12.14
2022-11-12T17:29:10.166Z,12.19
2022-11-12T17:31:55.928Z,12.05
2022-11-12T17:34:41.928Z,12.05
2022-11-12T17:37:27.731Z,12.03
2022-11-12T17:40:13.606Z,11.91
2022-11-12T17:43:04.431Z,11.91
2022-11-12T17:45:54.180Z,11.81
2022-11-12T17:48:41.178Z,11.71
2022-11-12T17:51:28.496Z,11.69
2022-11-12T17:54:14.590Z,11.77
2022-11-12T17:57:00.382Z,11.83
2022-11-12T17:59:46.148Z,11.73
2022-11-12T18:02:32.135Z,11.40
2022-11-12T18:05:18.287Z,11.39
2022-11-12T18:08:04.704Z,11.61
2022-11-12T18:10:51.671Z,11.91
2022-11-12T18:13:38.637Z,12.06
2022-11-12T18:16:27.566Z,11.96
2022-11-12T18:19:14.247Z,12.21
2022-11-12T18:22:02.272Z,11.97
2022-11-12T18:24:48.271Z,11.83
2022-11-12T18:27:34.273Z,11.90
2022-11-12T18:30:20.023Z,12.08
2022-11-12T18:33:06.416Z,11.94
2022-11-12T18:36:06.243Z,12.06
2022-11-12T18:38:53.260Z,12.15
2022-11-12T18:41:39.357Z,12.18
2022-11-12T18:44:26.246Z,12.17
2022-11-12T18:47:12.236Z,12.32
2022-11-12T18:50:49.517Z,12.32
2022-11-12T18:53:40.047Z,12.31
2022-11-12T18:56:26.546Z,12.24
2022-11-12T18:59:15.558Z,12.06
2022-11-12T19:02:01.591Z,12.14
2022-11-12T19:04:49.668Z,11.80
2022-11-12T19:07:35.782Z,11.89
2022-11-12T19:10:22.082Z,11.89
2022-11-12T19:13:07.778Z,11.91
2022-11-12T19:15:56.504Z,11.93
2022-11-12T19:18:43.322Z,11.92
2022-11-12T19:21:29.340Z,11.95
2022-11-12T19:24:15.101Z,11.91
2022-11-12T19:27:00.889Z,11.94
2022-11-12T19:29:49.487Z,11.77
2022-11-12T19:32:35.464Z,11.41
2022-11-12T19:35:21.565Z,11.34
2022-11-12T19:38:07.270Z,11.32
2022-11-12T19:40:53.195Z,11.55
2022-11-12T19:43:41.592Z,11.67
2022-11-12T19:46:32.575Z,11.77
2022-11-12T19:49:18.651Z,11.89
2022-11-12T19:52:04.682Z,11.78
2022-11-12T19:54:50.562Z,11.79
2022-11-12T19:57:36.320Z,11.77
2022-11-12T20:00:22.250Z,11.99
2022-11-12T20:03:07.787Z,11.78
2022-11-12T20:06:03.026Z,11.97
2022-11-12T20:08:49.246Z,12.30
2022-11-12T20:11:35.654Z,12.42
2022-11-12T20:14:21.843Z,12.16
2022-11-12T20:17:07.628Z,11.95
2022-11-12T20:19:53.588Z,11.80
2022-11-12T20:22:42.458Z,11.70
2022-11-12T20:25:28.690Z,11.72
2022-11-12T20:28:14.372Z,12.00
2022-11-12T20:31:11.206Z,12.18
2022-11-12T20:33:57.157Z,11.97
2022-11-12T20:36:42.893Z,12.19
2022-11-12T20:39:28.650Z,12.22
2022-11-12T20:42:14.421Z,12.10
2022-11-12T20:45:00.594Z,12.15
2022-11-12T20:47:46.336Z,12.20
2022-11-12T20:50:32.062Z,12.17
2022-11-12T20:53:18.256Z,12.16
2022-11-12T20:56:09.750Z,12.02
2022-11-12T20:58:56.933Z,12.00
2022-11-12T21:01:42.969Z,11.88
2022-11-12T21:04:28.658Z,12.07
2022-11-12T21:07:14.923Z,12.12
2022-11-12T21:10:00.905Z,12.13
2022-11-12T21:12:46.700Z,12.15
2022-11-12T21:15:32.233Z,12.13
2022-11-12T21:18:18.798Z,12.09
2022-11-12T21:21:06.104Z,12.16
2022-11-12T21:23:53.915Z,12.37
2022-11-12T21:26:40.142Z,12.27
2022-11-12T21:29:25.982Z,11.79
2022-11-12T21:32:11.772Z,12.12
2022-11-12T21:34:57.540Z,12.26
2022-11-12T21:37:43.254Z,12.14
2022-11-12T21:40:29.084Z,12.20
2022-11-12T21:43:14.793Z,12.05
2022-11-12T21:46:01.069Z,12.01
2022-11-12T21:48:52.252Z,11.55
2022-11-12T21:51:40.438Z,11.61
2022-11-12T21:54:26.231Z,11.61
2022-11-12T21:57:16.122Z,11.59
2022-11-12T22:00:39.282Z,11.58
2022-11-12T22:03:11.232Z,11.66
2022-11-12T22:05:56.914Z,11.88
2022-11-12T22:08:43.207Z,11.81
2022-11-12T22:11:29.233Z,11.68
2022-11-12T22:14:15.063Z,11.82
2022-11-12T22:17:00.640Z,11.75
2022-11-12T22:19:46.415Z,12.05
2022-11-12T22:22:32.226Z,11.84
2022-11-12T22:25:18.138Z,11.85
2022-11-12T22:28:04.021Z,11.83
2022-11-12T22:30:50.152Z,11.82
2022-11-12T22:33:36.364Z,11.79
2022-11-12T22:36:24.247Z,11.79
2022-11-12T22:39:10.148Z,11.88
2022-11-12T22:41:55.940Z,11.85
2022-11-12T22:44:41.672Z,11.96
2022-11-12T22:47:27.658Z,11.96
2022-11-12T22:50:13.996Z,11.78
2022-11-12T22:53:00.323Z,11.51
2022-11-12T22:55:46.032Z,11.59
2022-11-12T22:58:41.608Z,11.46
2022-11-12T23:05:11.644Z,11.69
2022-11-12T23:07:57.954Z,12.03
2022-11-12T23:10:46.002Z,11.75
2022-11-12T23:13:32.457Z,11.59
2022-11-12T23:16:26.267Z,11.20
2022-11-12T23:19:12.303Z,11.46
2022-11-12T23:21:58.157Z,11.85
2022-11-12T23:24:43.905Z,11.86
2022-11-12T23:27:29.694Z,12.03
2022-11-12T23:30:15.918Z,12.08
2022-11-12T23:33:02.599Z,11.91
2022-11-12T23:35:48.703Z,11.91
2022-11-12T23:38:34.827Z,11.83
2022-11-12T23:41:23.012Z,11.93
2022-11-12T23:44:09.072Z,12.08
2022-11-12T23:46:55.064Z,12.11
2022-11-12T23:49:40.978Z,12.26
2022-11-12T23:52:26.837Z,12.46
2022-11-12T23:55:12.409Z,12.88
2022-11-12T23:57:58.285Z,12.90
